Time;durP1;ratioP1;P1;durP2;ratioP2;P2;SDS_P1;SDS_P2;PMS_P1;PMS_P2;Temp;Humidity;BMP_temperature;BMP_pressure;BME280_temperature;BME280_humidity;BME280_pressure;Samples;Min_cycle;Max_cycle;Signal;HPM_P1;HPM_P2
2021/10/31 00:01:27;;;;;;;7.83;5.20;;;11.60;99.90;;;;;;5031234;28;20598;-51
2021/10/31 00:03:55;;;;;;;9.13;5.03;;;11.50;99.90;;;;;;5032372;28;20204;-49
2021/10/31 00:06:22;;;;;;;7.17;4.87;;;11.60;99.90;;;;;;5030625;28;20247;-49
2021/10/31 00:08:49;;;;;;;8.97;4.83;;;11.60;99.90;;;;;;5031426;28;20279;-49
2021/10/31 00:11:17;;;;;;;8.23;4.87;;;11.50;99.90;;;;;;5031141;28;20207;-49
2021/10/31 00:13:44;;;;;;;9.50;4.83;;;11.40;99.90;;;;;;5030068;28;20300;-49
2021/10/31 00:16:11;;;;;;;6.60;4.27;;;11.50;99.90;;;;;;5032659;28;20206;-49
2021/10/31 00:18:38;;;;;;;6.33;4.67;;;11.40;99.90;;;;;;5034559;28;20224;-50
2021/10/31 00:21:05;;;;;;;7.97;4.70;;;11.50;99.90;;;;;;5033788;28;20650;-49
2021/10/31 00:23:32;;;;;;;5.43;4.20;;;11.50;99.90;;;;;;5034495;28;20194;-49
2021/10/31 00:25:59;;;;;;;6.73;4.43;;;11.60;99.90;;;;;;5035516;28;20201;-49
2021/10/31 00:28:27;;;;;;;6.83;4.63;;;11.50;99.90;;;;;;5035162;28;20202;-49
2021/10/31 00:30:53;;;;;;;9.97;4.50;;;11.50;99.90;;;;;;5034318;28;20567;-50
2021/10/31 00:33:21;;;;;;;7.50;4.50;;;11.50;99.90;;;;;;5035230;28;20211;-51
2021/10/31 00:35:47;;;;;;;7.43;4.53;;;11.50;99.90;;;;;;5035102;28;20210;-49
2021/10/31 00:38:14;;;;;;;7.30;4.17;;;11.40;99.90;;;;;;5034047;28;20581;-50
2021/10/31 00:40:43;;;;;;;10.00;4.23;;;11.30;99.90;;;;;;5033138;28;20600;-49
2021/10/31 00:43:10;;;;;;;5.13;3.70;;;11.30;99.90;;;;;;5033938;28;20490;-52
2021/10/31 00:45:41;;;;;;;7.70;4.27;;;11.30;99.90;;;;;;5034238;28;20283;-51
2021/10/31 00:48:09;;;;;;;6.13;4.20;;;11.30;99.90;;;;;;5036909;28;20199;-49
2021/10/31 00:50:36;;;;;;;7.37;4.17;;;11.30;99.90;;;;;;5034865;28;20196;-51
2021/10/31 00:53:04;;;;;;;4.53;3.63;;;11.30;99.90;;;;;;5045029;28;20200;-51
2021/10/31 00:55:31;;;;;;;4.93;4.10;;;11.30;99.90;;;;;;5042367;28;20611;-51
2021/10/31 00:57:59;;;;;;;11.23;4.50;;;11.20;99.90;;;;;;5042352;28;20592;-51
2021/10/31 01:00:26;;;;;;;7.37;4.57;;;11.30;99.90;;;;;;5036896;28;20287;-50
2021/10/31 01:02:53;;;;;;;8.67;5.37;;;11.20;99.90;;;;;;5048023;28;20622;-51
2021/10/31 01:05:25;;;;;;;9.30;5.50;;;11.20;99.90;;;;;;5048596;28;20283;-51
2021/10/31 01:08:14;;;;;;;7.17;5.47;;;11.30;99.90;;;;;;5031542;28;20296;-51
2021/10/31 01:10:59;;;;;;;7.87;5.57;;;11.30;99.90;;;;;;5043178;28;20571;-51
2021/10/31 01:13:41;;;;;;;10.40;5.67;;;11.20;99.90;;;;;;5042285;28;20236;-50
2021/10/31 01:16:24;;;;;;;7.70;5.23;;;11.30;99.90;;;;;;5033339;28;20644;-50
2021/10/31 01:19:27;;;;;;;11.03;5.63;;;11.20;99.90;;;;;;5043071;28;20217;-50
2021/10/31 01:22:11;;;;;;;8.97;5.33;;;11.20;99.90;;;;;;5018243;28;20249;-50
2021/10/31 01:24:59;;;;;;;13.63;6.53;;;11.10;99.90;;;;;;5041582;28;20602;-51
2021/10/31 01:27:37;;;;;;;11.03;5.87;;;11.10;99.90;;;;;;5046269;28;20232;-50
2021/10/31 01:30:39;;;;;;;9.57;5.63;;;11.00;99.90;;;;;;5044769;28;20197;-51
2021/10/31 01:33:12;;;;;;;10.07;5.73;;;11.00;99.90;;;;;;5032674;28;20225;-51
2021/10/31 01:35:49;;;;;;;15.93;6.13;;;10.90;99.90;;;;;;5038840;28;21025;-51
2021/10/31 01:38:40;;;;;;;9.77;6.00;;;10.90;99.90;;;;;;5043006;28;20678;-51
2021/10/31 01:41:18;;;;;;;11.13;6.27;;;11.00;99.90;;;;;;5040322;28;21035;-49
2021/10/31 01:44:16;;;;;;;9.50;5.60;;;11.00;99.90;;;;;;5040803;28;20197;-51
2021/10/31 01:47:00;;;;;;;13.13;5.30;;;10.90;99.90;;;;;;5041500;28;21652;-52
2021/10/31 01:49:34;;;;;;;9.10;5.40;;;10.90;99.90;;;;;;5043957;28;20671;-49
2021/10/31 01:52:06;;;;;;;7.63;5.63;;;11.10;99.90;;;;;;5048114;28;20662;-50
2021/10/31 01:54:41;;;;;;;10.37;5.77;;;11.00;99.90;;;;;;5051677;28;20679;-49
2021/10/31 01:57:11;;;;;;;11.70;5.20;;;11.10;99.90;;;;;;5040056;28;20222;-49
2021/10/31 01:59:42;;;;;;;10.37;5.67;;;10.90;99.90;;;;;;5049091;28;20211;-50
2021/10/31 02:02:10;;;;;;;10.67;5.90;;;11.10;99.90;;;;;;5043077;28;20200;-50
2021/10/31 02:04:39;;;;;;;11.90;6.23;;;11.10;99.90;;;;;;5045060;28;20201;-49
2021/10/31 02:07:07;;;;;;;8.17;5.13;;;11.00;99.90;;;;;;5048081;28;20583;-49
2021/10/31 02:09:36;;;;;;;8.40;5.40;;;11.10;99.90;;;;;;5047493;28;20245;-50
2021/10/31 02:12:05;;;;;;;8.30;6.07;;;11.00;99.90;;;;;;5034536;28;20240;-50
2021/10/31 02:14:33;;;;;;;8.30;5.37;;;10.90;99.90;;;;;;5047425;28;20275;-50
2021/10/31 02:17:01;;;;;;;11.27;6.00;;;10.80;99.90;;;;;;5052748;28;20238;-50
2021/10/31 02:19:39;;;;;;;8.20;5.63;;;10.90;99.90;;;;;;5045565;28;20239;-49
2021/10/31 02:22:09;;;;;;;7.53;5.60;;;10.80;99.90;;;;;;5048842;28;20192;-49
2021/10/31 02:24:36;;;;;;;11.40;5.60;;;10.90;99.90;;;;;;5045821;28;20538;-49
2021/10/31 02:27:22;;;;;;;9.27;5.70;;;10.80;99.90;;;;;;5042018;28;20213;-49
2021/10/31 02:29:49;;;;;;;11.77;6.27;;;10.90;99.90;;;;;;5046490;28;20257;-49
2021/10/31 02:32:17;;;;;;;9.47;6.23;;;10.80;99.90;;;;;;5043919;28;20624;-49
2021/10/31 02:34:45;;;;;;;9.40;6.10;;;10.90;99.90;;;;;;5043619;28;20240;-50
2021/10/31 02:37:11;;;;;;;9.03;5.50;;;10.80;99.90;;;;;;5045188;28;20280;-50
2021/10/31 02:39:38;;;;;;;8.23;5.77;;;10.80;99.90;;;;;;5041862;28;20270;-49
2021/10/31 02:42:05;;;;;;;9.97;6.03;;;11.00;99.90;;;;;;5050675;28;20245;-49
2021/10/31 02:44:33;;;;;;;9.03;5.50;;;10.90;99.90;;;;;;5035249;28;20259;-50
2021/10/31 02:47:00;;;;;;;7.90;6.03;;;11.00;99.90;;;;;;5034721;28;20619;-50
2021/10/31 02:49:28;;;;;;;8.80;5.80;;;11.00;99.90;;;;;;5046762;28;20216;-49
2021/10/31 02:52:04;;;;;;;11.20;6.03;;;10.90;99.90;;;;;;5047428;28;20203;-49
2021/10/31 02:54:40;;;;;;;9.77;5.73;;;10.80;99.90;;;;;;5034423;28;20197;-50
2021/10/31 02:57:19;;;;;;;9.47;6.13;;;10.90;99.90;;;;;;5045765;28;20201;-49
2021/10/31 02:59:53;;;;;;;8.73;6.37;;;10.90;99.90;;;;;;5040033;28;20255;-50
2021/10/31 03:02:21;;;;;;;8.37;5.63;;;10.90;99.90;;;;;;5047995;28;20621;-49
2021/10/31 03:04:49;;;;;;;8.43;5.80;;;10.90;99.90;;;;;;5049500;28;20252;-51
2021/10/31 03:07:17;;;;;;;9.93;5.67;;;10.90;99.90;;;;;;5048269;28;20227;-50
2021/10/31 03:09:48;;;;;;;8.73;5.60;;;11.00;99.90;;;;;;5048246;28;20228;-50
2021/10/31 03:12:16;;;;;;;9.00;5.30;;;10.90;99.90;;;;;;5046178;28;20242;-50
2021/10/31 03:14:43;;;;;;;7.53;5.63;;;10.80;99.90;;;;;;5046562;28;20200;-49
2021/10/31 03:17:10;;;;;;;10.30;6.27;;;10.90;99.90;;;;;;5044771;28;20205;-50
2021/10/31 03:19:37;;;;;;;11.27;6.00;;;11.00;99.90;;;;;;5041431;28;20263;-50
2021/10/31 03:22:05;;;;;;;7.80;5.97;;;11.10;99.90;;;;;;5044397;28;20250;-50
2021/10/31 03:24:32;;;;;;;10.43;5.93;;;11.00;99.90;;;;;;5040208;28;20197;-50
2021/10/31 03:26:59;;;;;;;7.10;5.27;;;11.10;99.90;;;;;;5048300;28;20231;-50
2021/10/31 03:29:26;;;;;;;9.93;6.03;;;11.10;99.90;;;;;;5046850;28;20199;-50
2021/10/31 03:31:53;;;;;;;6.70;5.37;;;11.00;99.90;;;;;;5046706;28;20203;-50
2021/10/31 03:34:21;;;;;;;7.63;6.00;;;11.10;99.90;;;;;;5038850;28;20205;-50
2021/10/31 03:36:48;;;;;;;10.33;5.53;;;11.10;99.90;;;;;;5046677;28;20247;-50
2021/10/31 03:39:16;;;;;;;8.17;6.23;;;11.00;99.90;;;;;;5045177;28;20204;-50
2021/10/31 03:41:45;;;;;;;8.80;6.43;;;10.90;99.90;;;;;;5034242;28;20244;-50
2021/10/31 03:44:15;;;;;;;11.27;6.23;;;10.80;99.90;;;;;;5044135;28;20226;-50
2021/10/31 03:46:43;;;;;;;10.07;6.10;;;11.00;99.90;;;;;;5041410;28;20196;-49
2021/10/31 03:49:10;;;;;;;8.97;6.10;;;11.00;99.90;;;;;;5046975;28;20464;-50
2021/10/31 03:51:37;;;;;;;8.67;6.37;;;10.90;99.90;;;;;;5042874;28;20189;-50
2021/10/31 03:54:04;;;;;;;8.27;5.97;;;10.90;99.90;;;;;;5035628;28;20248;-49
2021/10/31 03:56:30;;;;;;;14.17;6.50;;;10.90;99.90;;;;;;5042367;28;20196;-49
2021/10/31 03:58:58;;;;;;;9.30;6.83;;;10.90;99.90;;;;;;5046598;28;20232;-50
2021/10/31 04:01:25;;;;;;;10.87;6.20;;;10.90;99.90;;;;;;5059299;28;20260;-50
2021/10/31 04:03:53;;;;;;;10.70;7.37;;;10.70;99.90;;;;;;5048361;28;21842;-50
2021/10/31 04:06:20;;;;;;;7.70;6.23;;;10.70;99.90;;;;;;5030371;28;20200;-50
2021/10/31 04:08:47;;;;;;;14.87;7.63;;;10.70;99.90;;;;;;5048448;28;20335;-49
2021/10/31 04:11:14;;;;;;;10.60;6.93;;;10.80;99.90;;;;;;5043878;28;20248;-50
2021/10/31 04:13:41;;;;;;;10.97;7.10;;;10.80;99.90;;;;;;5042482;28;20584;-49
2021/10/31 04:16:08;;;;;;;12.70;7.60;;;10.80;99.90;;;;;;5040684;28;20207;-49
2021/10/31 04:18:35;;;;;;;11.33;7.57;;;10.80;99.90;;;;;;5046695;28;20295;-50
2021/10/31 04:21:02;;;;;;;12.83;8.07;;;10.80;99.90;;;;;;5043593;28;20235;-50
2021/10/31 04:23:30;;;;;;;14.30;8.37;;;10.70;99.90;;;;;;5044141;28;20603;-49
2021/10/31 04:25:57;;;;;;;10.33;7.43;;;10.70;99.90;;;;;;5044699;28;20193;-49
2021/10/31 04:28:24;;;;;;;13.93;8.70;;;10.80;99.90;;;;;;5045043;28;20196;-49
2021/10/31 04:30:51;;;;;;;14.10;8.87;;;10.80;99.90;;;;;;5037389;28;20300;-50
2021/10/31 04:33:18;;;;;;;13.33;8.33;;;10.80;99.90;;;;;;5046289;28;20272;-49
2021/10/31 04:35:45;;;;;;;10.90;8.37;;;10.70;99.90;;;;;;5048347;28;20207;-49
2021/10/31 04:38:15;;;;;;;14.00;8.63;;;10.70;99.90;;;;;;5040883;28;20228;-50
2021/10/31 04:40:42;;;;;;;11.43;8.10;;;10.80;99.90;;;;;;5043253;28;20222;-49
2021/10/31 04:43:11;;;;;;;12.20;8.80;;;10.80;99.90;;;;;;5045295;28;20727;-50
2021/10/31 04:45:40;;;;;;;12.37;9.27;;;10.80;99.90;;;;;;5046259;28;20207;-49
2021/10/31 04:48:07;;;;;;;10.03;8.03;;;10.80;99.90;;;;;;5045692;28;20203;-49
2021/10/31 04:50:34;;;;;;;13.37;8.47;;;10.70;99.90;;;;;;5042498;28;20211;-50
2021/10/31 04:53:05;;;;;;;11.57;8.67;;;10.60;99.90;;;;;;5042648;28;20205;-49
2021/10/31 04:55:32;;;;;;;13.63;9.03;;;10.60;99.90;;;;;;5047059;28;20245;-50
2021/10/31 04:57:59;;;;;;;11.30;9.20;;;10.70;99.90;;;;;;5046464;28;20243;-50
2021/10/31 05:00:26;;;;;;;13.83;8.53;;;10.60;99.90;;;;;;5047031;28;20270;-50
2021/10/31 05:02:53;;;;;;;11.50;8.57;;;10.60;99.90;;;;;;5038137;28;20662;-50
2021/10/31 05:05:21;;;;;;;11.03;8.67;;;10.70;99.90;;;;;;5033830;28;20288;-49
2021/10/31 05:07:49;;;;;;;12.33;8.57;;;10.70;99.90;;;;;;5041789;28;20245;-49
2021/10/31 05:10:16;;;;;;;13.83;9.20;;;10.70;99.90;;;;;;5040876;28;20219;-49
2021/10/31 05:12:44;;;;;;;13.73;8.90;;;10.60;99.90;;;;;;5039464;28;20243;-50
2021/10/31 05:15:11;;;;;;;11.33;8.10;;;10.80;99.90;;;;;;5042682;28;20652;-50
2021/10/31 05:17:39;;;;;;;13.60;7.50;;;10.80;99.90;;;;;;5037757;28;20200;-50
2021/10/31 05:20:06;;;;;;;9.80;8.20;;;10.80;99.90;;;;;;5039472;28;20217;-50
2021/10/31 05:22:33;;;;;;;13.07;8.47;;;10.90;99.90;;;;;;5048296;28;20284;-50
2021/10/31 05:25:02;;;;;;;9.63;7.93;;;10.80;99.90;;;;;;5041272;28;20230;-49
2021/10/31 05:27:29;;;;;;;11.80;7.97;;;10.80;99.90;;;;;;5046092;28;20195;-50
2021/10/31 05:29:56;;;;;;;10.03;7.40;;;10.90;99.90;;;;;;5051140;28;20210;-49
2021/10/31 05:32:24;;;;;;;9.57;7.80;;;10.90;99.90;;;;;;5050665;28;20674;-50
2021/10/31 05:34:51;;;;;;;11.33;8.00;;;10.80;99.90;;;;;;5049530;28;20629;-50
2021/10/31 05:37:18;;;;;;;10.93;7.87;;;10.80;99.90;;;;;;5045080;28;20275;-49
2021/10/31 05:39:45;;;;;;;13.77;7.80;;;10.80;99.90;;;;;;5047358;28;20273;-50
2021/10/31 05:42:12;;;;;;;10.73;7.30;;;10.80;99.90;;;;;;5050581;28;20567;-50
2021/10/31 05:44:38;;;;;;;9.70;6.93;;;10.80;99.90;;;;;;5053574;28;20193;-50
2021/10/31 05:47:06;;;;;;;8.67;6.47;;;10.70;99.90;;;;;;5044899;28;20202;-49
2021/10/31 05:49:33;;;;;;;9.83;6.97;;;10.80;99.90;;;;;;5049659;28;20207;-49
2021/10/31 05:52:00;;;;;;;9.83;7.33;;;10.90;99.90;;;;;;5047199;28;20192;-50
2021/10/31 05:54:27;;;;;;;8.23;6.73;;;10.80;99.90;;;;;;5049227;28;20447;-49
2021/10/31 05:56:53;;;;;;;9.20;6.60;;;10.90;99.90;;;;;;5047075;28;20257;-49
2021/10/31 05:59:20;;;;;;;8.57;6.63;;;11.00;99.90;;;;;;5050689;28;20326;-50
2021/10/31 06:01:47;;;;;;;8.37;6.50;;;11.00;99.90;;;;;;5046407;28;20749;-50
2021/10/31 06:04:14;;;;;;;11.53;6.90;;;11.10;99.90;;;;;;5045853;28;20283;-49
2021/10/31 06:06:41;;;;;;;8.37;6.47;;;11.10;99.90;;;;;;5047845;28;20223;-49
2021/10/31 06:09:08;;;;;;;8.63;6.40;;;11.10;99.90;;;;;;5048667;28;20253;-50
2021/10/31 06:11:35;;;;;;;8.77;7.00;;;11.20;99.90;;;;;;5045467;28;20221;-50
2021/10/31 06:14:02;;;;;;;10.00;6.90;;;11.20;99.90;;;;;;5050796;28;20204;-49
2021/10/31 06:16:28;;;;;;;11.03;6.70;;;11.10;99.90;;;;;;5049263;28;20200;-49
2021/10/31 06:18:55;;;;;;;10.60;6.87;;;11.00;99.90;;;;;;5049638;28;20653;-49
2021/10/31 06:21:22;;;;;;;9.47;6.73;;;10.90;99.90;;;;;;5049894;28;20204;-50
2021/10/31 06:23:49;;;;;;;7.70;6.10;;;11.00;99.90;;;;;;5047160;28;20194;-49
2021/10/31 06:26:16;;;;;;;7.33;6.53;;;10.90;99.90;;;;;;5043833;28;20192;-50
2021/10/31 06:28:43;;;;;;;9.50;6.50;;;10.90;99.90;;;;;;5049713;28;20209;-49
2021/10/31 06:31:10;;;;;;;7.27;5.90;;;10.90;99.90;;;;;;5045179;28;20199;-49
2021/10/31 06:33:37;;;;;;;6.77;6.03;;;11.00;99.90;;;;;;5046401;28;20198;-50
2021/10/31 06:36:04;;;;;;;10.03;5.70;;;11.00;99.90;;;;;;5040809;28;20561;-49
2021/10/31 06:38:30;;;;;;;8.87;6.23;;;11.00;99.90;;;;;;5052744;28;20207;-49
2021/10/31 06:40:58;;;;;;;7.03;5.77;;;10.90;99.90;;;;;;5051475;28;20300;-50
2021/10/31 06:43:25;;;;;;;7.20;6.07;;;11.00;99.90;;;;;;5049350;28;20209;-50
2021/10/31 06:45:52;;;;;;;6.60;5.83;;;10.90;99.90;;;;;;5050833;28;20218;-50
2021/10/31 06:48:19;;;;;;;7.13;6.17;;;10.90;99.90;;;;;;5052350;28;20192;-49
2021/10/31 06:50:46;;;;;;;7.97;6.00;;;10.90;99.90;;;;;;5048708;28;20609;-49
2021/10/31 06:53:12;;;;;;;6.37;5.77;;;10.90;99.90;;;;;;5048427;28;20196;-50
2021/10/31 06:55:40;;;;;;;7.53;6.43;;;11.00;99.90;;;;;;5046902;28;20199;-50
2021/10/31 06:58:06;;;;;;;8.23;6.57;;;10.90;99.90;;;;;;5046684;28;20228;-49
2021/10/31 07:00:33;;;;;;;8.03;6.40;;;10.90;99.90;;;;;;5041670;28;20709;-50
2021/10/31 07:03:00;;;;;;;10.43;6.17;;;11.00;99.90;;;;;;5047967;28;20265;-50
2021/10/31 07:05:27;;;;;;;8.83;6.30;;;10.90;99.90;;;;;;5048074;28;20205;-50
2021/10/31 07:07:54;;;;;;;9.87;6.77;;;11.00;99.90;;;;;;5048207;28;20200;-50
2021/10/31 07:10:21;;;;;;;10.77;5.83;;;10.90;99.90;;;;;;5048316;28;20282;-49
2021/10/31 07:12:48;;;;;;;8.10;6.17;;;11.00;99.90;;;;;;5049315;28;20247;-50
2021/10/31 07:15:14;;;;;;;7.87;6.43;;;11.10;99.90;;;;;;5047384;28;20291;-50
2021/10/31 07:17:42;;;;;;;9.63;6.30;;;11.10;99.90;;;;;;5044717;28;20567;-50
2021/10/31 07:20:10;;;;;;;9.50;7.00;;;11.10;99.90;;;;;;5048133;28;20401;-50
2021/10/31 07:22:37;;;;;;;6.70;5.70;;;11.10;99.90;;;;;;5049453;28;20197;-49
2021/10/31 07:25:05;;;;;;;8.67;6.33;;;11.20;99.90;;;;;;5045868;28;20205;-49
2021/10/31 07:27:32;;;;;;;9.17;5.97;;;11.20;99.90;;;;;;5044707;28;20293;-49
2021/10/31 07:29:59;;;;;;;8.60;6.67;;;11.10;99.90;;;;;;5047355;28;20718;-50
2021/10/31 07:32:26;;;;;;;8.57;6.53;;;11.10;99.90;;;;;;5048935;28;20221;-49
2021/10/31 07:34:52;;;;;;;7.50;6.03;;;11.10;99.90;;;;;;5048481;28;20252;-50
2021/10/31 07:37:19;;;;;;;8.20;5.80;;;11.10;99.90;;;;;;5049636;28;20255;-50
2021/10/31 07:39:48;;;;;;;8.53;6.10;;;11.20;99.90;;;;;;5048443;28;20197;-50
2021/10/31 07:42:15;;;;;;;7.47;6.47;;;11.10;99.90;;;;;;5049330;28;20209;-50
2021/10/31 07:44:44;;;;;;;8.37;6.23;;;11.00;99.90;;;;;;5048467;28;20256;-49
2021/10/31 07:47:11;;;;;;;6.23;5.63;;;11.00;99.90;;;;;;5047294;28;20203;-49
2021/10/31 07:49:38;;;;;;;8.93;6.07;;;11.10;99.90;;;;;;5044215;28;20663;-50
2021/10/31 07:52:05;;;;;;;8.23;6.43;;;11.10;99.90;;;;;;5043029;28;20226;-50
2021/10/31 07:54:32;;;;;;;7.07;5.50;;;11.30;99.90;;;;;;5045613;28;20658;-49
2021/10/31 07:57:05;;;;;;;6.90;5.80;;;11.30;99.90;;;;;;5046925;28;20210;-50
2021/10/31 07:59:32;;;;;;;7.03;5.43;;;11.40;99.90;;;;;;5044758;28;20606;-49
2021/10/31 08:01:59;;;;;;;7.03;5.80;;;11.30;99.90;;;;;;5037899;28;20246;-49
2021/10/31 08:04:26;;;;;;;7.53;5.60;;;11.30;99.90;;;;;;5042198;28;20552;-50
2021/10/31 08:06:52;;;;;;;9.00;6.17;;;11.30;99.90;;;;;;5045054;28;20194;-49
2021/10/31 08:09:19;;;;;;;8.67;6.23;;;11.30;99.90;;;;;;5043115;28;20242;-49
2021/10/31 08:11:46;;;;;;;9.00;6.10;;;11.30;99.90;;;;;;5040543;28;20731;-49
2021/10/31 08:14:13;;;;;;;7.17;4.90;;;11.40;99.90;;;;;;5034665;28;20860;-49
2021/10/31 08:16:40;;;;;;;9.67;5.13;;;11.40;99.90;;;;;;5036969;28;20200;-50
2021/10/31 08:19:08;;;;;;;6.10;5.07;;;11.30;99.90;;;;;;5034896;28;20308;-50
2021/10/31 08:21:37;;;;;;;6.63;5.00;;;11.50;99.90;;;;;;5030658;28;20213;-49
2021/10/31 08:24:05;;;;;;;7.00;5.03;;;11.50;99.90;;;;;;5033268;28;20275;-50
2021/10/31 08:26:32;;;;;;;6.30;4.87;;;11.40;99.90;;;;;;5042364;28;20915;-49
2021/10/31 08:29:01;;;;;;;8.20;5.20;;;11.50;99.90;;;;;;5041982;28;20200;-50
2021/10/31 08:31:32;;;;;;;6.73;4.97;;;11.70;99.90;;;;;;5041617;28;20615;-49
2021/10/31 08:34:01;;;;;;;5.50;4.60;;;12.00;99.90;;;;;;5043206;28;20201;-50
2021/10/31 08:36:29;;;;;;;6.00;4.43;;;12.00;99.90;;;;;;5039538;28;20691;-50
2021/10/31 08:38:58;;;;;;;4.83;4.10;;;12.00;99.90;;;;;;5041830;28;20746;-50
2021/10/31 08:41:26;;;;;;;5.97;3.63;;;12.00;99.90;;;;;;5043698;28;20277;-50
2021/10/31 08:43:59;;;;;;;5.80;4.80;;;12.20;99.90;;;;;;5024549;28;20343;-49
2021/10/31 08:46:27;;;;;;;6.20;3.70;;;12.20;99.90;;;;;;5029076;28;20563;-49
2021/10/31 08:48:55;;;;;;;4.17;3.77;;;12.30;99.90;;;;;;5033799;28;20236;-49
2021/10/31 08:51:24;;;;;;;4.40;3.40;;;12.20;99.90;;;;;;5032006;28;20980;-49
2021/10/31 08:53:53;;;;;;;5.47;3.80;;;12.60;99.90;;;;;;5035318;28;20839;-50
2021/10/31 08:56:22;;;;;;;7.73;3.57;;;12.90;99.90;;;;;;5033106;28;20652;-49
2021/10/31 08:58:49;;;;;;;3.97;2.77;;;12.90;99.90;;;;;;5034029;28;20636;-50
2021/10/31 09:01:17;;;;;;;3.23;2.93;;;12.80;99.90;;;;;;5031716;28;20316;-49
2021/10/31 09:03:45;;;;;;;3.80;2.97;;;13.00;99.90;;;;;;5029609;28;20285;-49
2021/10/31 09:06:12;;;;;;;3.00;2.60;;;13.30;99.90;;;;;;5032586;28;20405;-59
2021/10/31 09:08:40;;;;;;;4.70;2.80;;;13.30;99.90;;;;;;5031429;28;20188;-59
2021/10/31 09:11:09;;;;;;;3.07;2.33;;;13.40;99.90;;;;;;5033648;28;20479;-49
2021/10/31 09:13:36;;;;;;;2.80;2.43;;;13.40;99.90;;;;;;5035340;28;20241;-50
2021/10/31 09:16:03;;;;;;;3.50;2.60;;;13.30;99.90;;;;;;5035461;28;20552;-49
2021/10/31 09:18:32;;;;;;;5.07;2.10;;;13.30;99.90;;;;;;5036125;28;20200;-50
2021/10/31 09:21:00;;;;;;;3.83;2.53;;;13.40;99.90;;;;;;5034148;28;20297;-50
2021/10/31 09:23:27;;;;;;;2.53;1.90;;;13.30;99.90;;;;;;5038250;28;20603;-50
2021/10/31 09:25:54;;;;;;;2.80;2.10;;;13.20;99.90;;;;;;5034246;28;21006;-49
2021/10/31 09:28:21;;;;;;;3.40;1.90;;;13.50;99.90;;;;;;5038213;28;20688;-49
2021/10/31 09:30:47;;;;;;;2.57;2.00;;;13.80;99.90;;;;;;5041847;28;20681;-49
2021/10/31 09:33:15;;;;;;;2.57;1.70;;;14.00;99.90;;;;;;5042610;28;20248;-49
2021/10/31 09:35:56;;;;;;;2.13;1.60;;;14.00;99.90;;;;;;5042047;28;20494;-50
2021/10/31 09:38:26;;;;;;;2.80;1.97;;;14.50;99.90;;;;;;5037089;28;20717;-50
2021/10/31 09:40:54;;;;;;;2.27;1.80;;;14.60;99.90;;;;;;5040991;28;20216;-49
2021/10/31 09:43:24;;;;;;;3.43;1.77;;;14.60;99.90;;;;;;5045851;28;20204;-49
2021/10/31 09:45:51;;;;;;;5.00;1.70;;;14.50;99.90;;;;;;5046735;28;20228;-49
2021/10/31 09:48:17;;;;;;;2.40;1.37;;;14.50;99.90;;;;;;5047399;28;20233;-49
2021/10/31 09:50:48;;;;;;;2.10;1.40;;;14.60;99.90;;;;;;5043868;28;20477;-48
2021/10/31 09:53:20;;;;;;;1.67;1.40;;;14.70;99.90;;;;;;5041130;28;20196;-49
2021/10/31 09:55:48;;;;;;;3.07;2.03;;;14.60;99.90;;;;;;5043232;28;20198;-50
2021/10/31 09:58:21;;;;;;;1.97;1.50;;;14.80;99.90;;;;;;5047581;28;20571;-50
2021/10/31 10:00:52;;;;;;;1.83;1.60;;;14.80;99.90;;;;;;5045217;28;20201;-50
2021/10/31 10:03:25;;;;;;;1.73;1.50;;;15.30;99.90;;;;;;5047763;28;20266;-49
2021/10/31 10:06:20;;;;;;;2.23;1.37;;;15.00;99.90;;;;;;5046797;28;20248;-50
2021/10/31 10:08:57;;;;;;;2.00;1.47;;;15.00;99.90;;;;;;5047655;28;20235;-50
2021/10/31 10:11:25;;;;;;;1.70;1.27;;;14.80;99.90;;;;;;5047249;28;20266;-50
2021/10/31 10:13:53;;;;;;;5.10;1.30;;;14.70;99.90;;;;;;5040565;28;20576;-50
2021/10/31 10:16:29;;;;;;;2.17;1.20;;;14.70;99.90;;;;;;5046188;28;20657;-50
2021/10/31 10:18:57;;;;;;;2.20;1.33;;;14.50;99.90;;;;;;5061527;28;20214;-50
2021/10/31 10:21:27;;;;;;;1.83;1.30;;;14.40;99.90;;;;;;5046451;28;20277;-51
2021/10/31 10:23:58;;;;;;;1.57;1.40;;;14.50;99.90;;;;;;5044295;28;20573;-50
2021/10/31 10:26:33;;;;;;;4.03;1.40;;;14.60;99.90;;;;;;5034391;28;20637;-51
2021/10/31 10:29:31;;;;;;;1.73;1.07;;;14.90;99.90;;;;;;5045960;28;20195;-51
2021/10/31 10:32:07;;;;;;;4.80;1.73;;;14.90;99.90;;;;;;5045344;28;20271;-49
2021/10/31 10:34:48;;;;;;;2.17;1.20;;;15.00;99.90;;;;;;5046157;28;20278;-51
2021/10/31 10:37:29;;;;;;;2.33;1.20;;;14.90;99.90;;;;;;5030685;28;20310;-51
2021/10/31 10:40:04;;;;;;;1.67;1.37;;;15.10;99.90;;;;;;5059272;28;20206;-49
2021/10/31 10:42:37;;;;;;;1.87;1.30;;;15.20;99.90;;;;;;5048784;28;20241;-51
2021/10/31 10:45:09;;;;;;;2.07;1.10;;;15.50;99.90;;;;;;5048904;28;20250;-51
2021/10/31 10:47:42;;;;;;;3.17;1.20;;;15.20;99.90;;;;;;5037310;28;20314;-51
2021/10/31 10:50:23;;;;;;;2.20;1.10;;;14.90;99.90;;;;;;5044838;28;20267;-51
2021/10/31 10:52:51;;;;;;;2.70;1.37;;;15.00;99.90;;;;;;5031184;28;20242;-50
2021/10/31 10:55:36;;;;;;;1.90;1.17;;;15.00;99.90;;;;;;5046437;28;20236;-50
2021/10/31 10:58:15;;;;;;;2.40;1.27;;;14.90;99.90;;;;;;5048633;28;20204;-50
2021/10/31 11:00:47;;;;;;;1.77;1.37;;;15.00;99.90;;;;;;5039485;28;20917;-50
2021/10/31 11:03:20;;;;;;;1.80;1.03;;;15.10;99.90;;;;;;5041384;28;20295;-50
2021/10/31 11:05:49;;;;;;;2.20;1.33;;;15.30;99.90;;;;;;5046540;28;20203;-50
2021/10/31 11:08:19;;;;;;;1.30;1.00;;;15.00;99.90;;;;;;5044824;28;20295;-51
2021/10/31 11:10:50;;;;;;;1.77;1.30;;;14.90;99.90;;;;;;5046539;28;20192;-51
2021/10/31 11:13:17;;;;;;;2.30;1.20;;;14.80;99.90;;;;;;5046277;28;20268;-51
2021/10/31 11:15:44;;;;;;;1.33;1.03;;;14.80;99.90;;;;;;5047410;28;20250;-50
2021/10/31 11:18:11;;;;;;;1.27;1.10;;;14.70;99.90;;;;;;5037379;28;20204;-51
2021/10/31 11:20:42;;;;;;;1.60;1.17;;;14.60;99.90;;;;;;5038553;28;20253;-50
2021/10/31 11:23:16;;;;;;;1.43;1.00;;;14.60;99.90;;;;;;5048498;28;20294;-51
2021/10/31 11:25:46;;;;;;;1.90;1.23;;;14.60;99.90;;;;;;5042330;28;20242;-48
2021/10/31 11:28:15;;;;;;;1.33;1.10;;;14.70;99.90;;;;;;5038188;28;20580;-49
2021/10/31 11:30:45;;;;;;;1.97;0.90;;;14.60;99.90;;;;;;5034126;28;20302;-49
2021/10/31 11:33:12;;;;;;;2.13;1.00;;;14.60;99.90;;;;;;5035481;28;20296;-48
2021/10/31 11:35:40;;;;;;;0.83;0.70;;;14.70;99.90;;;;;;5036532;28;20290;-49
2021/10/31 11:38:14;;;;;;;2.33;0.83;;;14.80;99.90;;;;;;5037127;28;20222;-51
2021/10/31 11:40:42;;;;;;;2.00;1.00;;;14.70;99.90;;;;;;5036327;28;20205;-49
2021/10/31 11:43:16;;;;;;;0.63;0.63;;;14.70;99.90;;;;;;5036854;28;20407;-49
2021/10/31 11:45:46;;;;;;;1.03;0.90;;;14.70;99.90;;;;;;5033942;28;20254;-49
2021/10/31 11:48:16;;;;;;;0.93;0.87;;;14.70;99.90;;;;;;5037193;28;20196;-50
2021/10/31 11:51:01;;;;;;;2.10;1.07;;;14.60;99.90;;;;;;5036291;28;20192;-49
2021/10/31 11:53:41;;;;;;;1.73;1.10;;;14.80;99.90;;;;;;5034366;28;20300;-51
2021/10/31 11:56:23;;;;;;;2.50;0.83;;;14.80;99.90;;;;;;5036664;28;20204;-50
2021/10/31 11:58:59;;;;;;;1.03;0.70;;;14.80;99.90;;;;;;5036654;28;20196;-50
2021/10/31 12:01:30;;;;;;;1.43;0.80;;;14.80;99.90;;;;;;5035014;28;20213;-51
2021/10/31 12:03:59;;;;;;;1.20;1.00;;;14.90;99.90;;;;;;5037296;28;20219;-51
2021/10/31 12:06:26;;;;;;;1.93;1.00;;;14.90;99.90;;;;;;5035095;28;20204;-49
2021/10/31 12:09:01;;;;;;;1.03;0.80;;;15.00;99.90;;;;;;5036249;28;20284;-49
2021/10/31 12:11:37;;;;;;;1.10;0.90;;;14.90;99.90;;;;;;5036014;28;20272;-49
2021/10/31 12:14:06;;;;;;;2.30;1.00;;;15.00;99.90;;;;;;5036310;28;20219;-49
2021/10/31 12:16:57;;;;;;;2.60;1.00;;;15.00;99.90;;;;;;5034445;28;20632;-49
2021/10/31 12:19:40;;;;;;;2.20;1.13;;;15.10;99.90;;;;;;5035123;28;20690;-48
2021/10/31 12:22:34;;;;;;;3.50;1.07;;;15.10;99.90;;;;;;5033305;28;20255;-49
2021/10/31 12:25:08;;;;;;;2.00;0.93;;;15.30;99.90;;;;;;5035092;28;20220;-49
2021/10/31 12:27:46;;;;;;;2.30;1.20;;;15.30;99.90;;;;;;5030598;28;20648;-50
2021/10/31 12:30:33;;;;;;;3.40;1.30;;;15.50;99.90;;;;;;5034664;28;20342;-50
2021/10/31 12:33:06;;;;;;;1.50;1.40;;;15.50;99.90;;;;;;5030956;28;20299;-49
2021/10/31 12:35:36;;;;;;;1.53;1.07;;;16.00;99.90;;;;;;5051223;28;20599;-49
2021/10/31 12:38:23;;;;;;;1.73;1.13;;;16.10;99.90;;;;;;5032561;28;20252;-50
2021/10/31 12:41:05;;;;;;;2.87;1.20;;;16.20;99.90;;;;;;5026501;28;20293;-49
2021/10/31 12:43:43;;;;;;;1.27;1.10;;;16.40;99.90;;;;;;5030100;28;20220;-49
2021/10/31 12:46:40;;;;;;;1.93;1.30;;;16.70;99.90;;;;;;5032407;28;21159;-49
2021/10/31 12:49:07;;;;;;;1.50;1.40;;;16.40;99.90;;;;;;5036100;28;20289;-50
2021/10/31 12:51:36;;;;;;;1.53;1.20;;;16.20;99.90;;;;;;5043595;28;20204;-49
2021/10/31 12:54:07;;;;;;;1.33;1.23;;;16.20;99.90;;;;;;5043120;28;20216;-49
2021/10/31 12:56:34;;;;;;;1.30;1.10;;;16.40;99.90;;;;;;5037243;28;20193;-49
2021/10/31 12:59:06;;;;;;;2.57;1.50;;;16.40;99.90;;;;;;5043911;28;20633;-49
2021/10/31 13:01:33;;;;;;;1.97;1.00;;;16.40;99.90;;;;;;5042580;28;20473;-49